createdAt,value
2023-05-14T00:00:00.765Z,11.98
2023-05-14T00:02:27.577Z,12.35
2023-05-14T00:04:54.283Z,11.13
2023-05-14T00:07:20.966Z,10.20
2023-05-14T00:09:47.627Z,11.48
2023-05-14T00:12:14.315Z,12.70
2023-05-14T00:14:41.030Z,12.63
2023-05-14T00:17:07.620Z,16.73
2023-05-14T00:19:34.215Z,13.50
2023-05-14T00:22:01.014Z,16.58
2023-05-14T00:24:27.759Z,14.00
2023-05-14T00:26:54.433Z,13.35
2023-05-14T00:29:21.081Z,11.43
2023-05-14T00:31:47.760Z,11.38
2023-05-14T00:34:14.509Z,13.48
2023-05-14T00:36:41.145Z,13.23
2023-05-14T00:39:07.825Z,13.18
2023-05-14T00:41:34.527Z,14.45
2023-05-14T00:44:01.176Z,14.80
2023-05-14T00:46:27.903Z,22.33
2023-05-14T00:48:54.609Z,17.20
2023-05-14T00:51:21.933Z,15.88
2023-05-14T00:53:48.867Z,15.10
2023-05-14T00:56:15.748Z,17.65
2023-05-14T00:58:42.398Z,15.75
2023-05-14T01:01:09.207Z,19.10
2023-05-14T01:03:35.920Z,20.52
2023-05-14T01:06:10.675Z,17.58
2023-05-14T01:11:10.132Z,14.98
2023-05-14T01:13:40.171Z,15.63
2023-05-14T01:16:06.818Z,14.55
2023-05-14T01:18:33.582Z,14.57
2023-05-14T01:21:00.204Z,13.50
2023-05-14T01:23:26.862Z,15.38
2023-05-14T01:25:53.459Z,14.13
2023-05-14T01:28:21.918Z,15.63
2023-05-14T01:31:02.498Z,15.90
2023-05-14T01:33:29.590Z,14.45
2023-05-14T01:35:56.264Z,13.00
2023-05-14T01:38:23.161Z,14.90
2023-05-14T01:40:49.768Z,11.73
2023-05-14T01:43:16.553Z,13.20
2023-05-14T01:45:43.785Z,13.07
2023-05-14T01:48:10.783Z,14.98
2023-05-14T01:50:37.517Z,13.70
2023-05-14T01:53:04.167Z,15.98
2023-05-14T01:55:30.821Z,17.13
2023-05-14T01:57:57.419Z,15.90
2023-05-14T02:00:26.174Z,14.23
2023-05-14T02:02:53.137Z,16.42
2023-05-14T02:05:19.909Z,16.98
2023-05-14T02:07:46.558Z,20.50
2023-05-14T02:10:13.307Z,17.88
2023-05-14T02:12:40.019Z,14.82
2023-05-14T02:15:08.925Z,11.35
2023-05-14T02:17:35.668Z,12.57
2023-05-14T02:20:02.378Z,13.25
2023-05-14T02:22:29.062Z,14.10
2023-05-14T02:24:56.145Z,15.32
2023-05-14T02:27:22.787Z,15.10
2023-05-14T02:29:49.402Z,11.40
2023-05-14T02:32:16.061Z,12.40
2023-05-14T02:34:42.752Z,14.32
2023-05-14T02:37:09.389Z,11.88
2023-05-14T02:39:36.026Z,11.32
2023-05-14T02:42:02.770Z,11.38
2023-05-14T02:44:31.844Z,10.98
2023-05-14T02:46:58.614Z,12.35
2023-05-14T02:49:25.347Z,10.68
2023-05-14T02:51:54.305Z,10.20
2023-05-14T02:54:20.952Z,11.85
2023-05-14T02:56:47.755Z,11.40
2023-05-14T02:59:14.530Z,16.75
2023-05-14T03:01:41.826Z,9.27
2023-05-14T03:04:08.876Z,14.98
2023-05-14T03:06:35.574Z,10.82
2023-05-14T03:09:02.240Z,14.57
2023-05-14T03:11:28.874Z,13.23
2023-05-14T03:13:55.533Z,12.57
2023-05-14T03:16:22.777Z,12.70
2023-05-14T03:18:49.475Z,14.75
2023-05-14T03:21:16.171Z,11.13
2023-05-14T03:23:42.864Z,18.35
2023-05-14T03:26:09.470Z,13.60
2023-05-14T03:28:36.112Z,12.82
2023-05-14T03:31:02.849Z,10.77
2023-05-14T03:33:29.556Z,11.88
2023-05-14T03:35:56.156Z,13.43
2023-05-14T03:38:22.819Z,15.45
2023-05-14T03:40:49.428Z,17.70
2023-05-14T03:43:16.453Z,15.02
2023-05-14T03:45:43.141Z,15.57
2023-05-14T03:48:09.899Z,17.85
2023-05-14T03:50:36.716Z,14.52
2023-05-14T03:53:03.430Z,12.65
2023-05-14T03:55:30.092Z,15.20
2023-05-14T03:57:56.818Z,16.02
2023-05-14T04:00:23.704Z,16.13
2023-05-14T04:02:50.726Z,14.32
2023-05-14T04:05:17.535Z,12.88
2023-05-14T04:07:45.920Z,11.80
2023-05-14T04:10:13.510Z,13.07
2023-05-14T04:12:40.144Z,12.45
2023-05-14T04:15:07.432Z,16.95
2023-05-14T04:17:35.047Z,12.95
2023-05-14T04:20:02.028Z,15.45
2023-05-14T04:22:28.725Z,16.77
2023-05-14T04:24:55.320Z,13.88
2023-05-14T04:27:22.314Z,16.70
2023-05-14T04:29:49.697Z,15.57
2023-05-14T04:32:16.452Z,17.27
2023-05-14T04:34:43.130Z,15.70
2023-05-14T04:37:10.175Z,15.52
2023-05-14T04:39:36.849Z,15.45
2023-05-14T04:42:03.759Z,21.17
2023-05-14T04:44:30.531Z,17.27
2023-05-14T04:46:57.292Z,19.90
2023-05-14T04:49:23.936Z,18.02
2023-05-14T04:51:50.820Z,17.90
2023-05-14T04:54:17.511Z,17.02
2023-05-14T04:56:44.210Z,14.02
2023-05-14T04:59:10.883Z,14.52
2023-05-14T05:01:37.709Z,13.43
2023-05-14T05:04:04.529Z,17.23
2023-05-14T05:06:31.715Z,14.30
2023-05-14T05:08:59.992Z,18.58
2023-05-14T05:11:27.953Z,15.90
2023-05-14T05:13:54.613Z,14.45
2023-05-14T05:16:21.339Z,15.07
2023-05-14T05:18:48.057Z,15.82
2023-05-14T05:21:14.773Z,15.32
2023-05-14T05:23:41.563Z,15.35
2023-05-14T05:26:08.250Z,17.15
2023-05-14T05:28:34.902Z,19.13
2023-05-14T05:31:01.600Z,18.52
2023-05-14T05:33:28.342Z,13.43
2023-05-14T05:35:55.041Z,14.88
2023-05-14T05:38:21.718Z,11.55
2023-05-14T05:40:48.469Z,12.93
2023-05-14T05:43:15.534Z,16.02
2023-05-14T05:45:42.163Z,16.67
2023-05-14T05:48:08.810Z,16.60
2023-05-14T05:50:35.577Z,20.83
2023-05-14T05:53:02.371Z,26.02
2023-05-14T05:55:29.429Z,26.58
2023-05-14T05:57:56.302Z,24.50
2023-05-14T06:00:24.036Z,24.45
2023-05-14T06:02:50.987Z,19.92
2023-05-14T06:05:17.760Z,21.77
2023-05-14T06:07:44.489Z,20.67
2023-05-14T06:10:11.190Z,18.38
2023-05-14T06:12:37.879Z,21.10
2023-05-14T06:15:04.810Z,18.80
2023-05-14T06:17:31.617Z,21.83
2023-05-14T06:19:58.255Z,23.23
2023-05-14T06:22:24.954Z,20.00
2023-05-14T06:24:51.665Z,22.42
2023-05-14T06:27:18.321Z,20.08
2023-05-14T06:29:45.021Z,23.15
2023-05-14T06:32:15.473Z,26.02
2023-05-14T06:34:42.733Z,24.13
2023-05-14T06:37:09.856Z,23.63
2023-05-14T06:39:37.353Z,23.55
2023-05-14T06:42:04.338Z,34.80
2023-05-14T06:44:31.119Z,33.00
2023-05-14T06:46:57.722Z,29.42
2023-05-14T06:49:24.480Z,25.90
2023-05-14T06:51:51.166Z,26.45
2023-05-14T06:54:17.891Z,29.40
2023-05-14T06:56:44.581Z,26.67
2023-05-14T06:59:11.289Z,25.85
2023-05-14T07:01:37.966Z,30.58
2023-05-14T07:04:04.751Z,27.75
2023-05-14T07:06:32.599Z,26.33
2023-05-14T07:08:59.485Z,30.67
2023-05-14T07:11:26.262Z,28.15
2023-05-14T07:13:53.007Z,31.92
2023-05-14T07:16:19.855Z,24.30
2023-05-14T07:18:46.639Z,25.27
2023-05-14T07:21:13.304Z,22.55
2023-05-14T07:23:39.973Z,22.30
2023-05-14T07:26:06.869Z,25.75
2023-05-14T07:28:33.690Z,21.98
2023-05-14T07:31:00.933Z,20.60
2023-05-14T07:33:27.654Z,21.42
2023-05-14T07:35:54.366Z,20.77
2023-05-14T07:38:21.039Z,22.48
2023-05-14T07:40:47.750Z,22.88
2023-05-14T07:43:14.399Z,21.60
2023-05-14T07:45:41.226Z,23.30
2023-05-14T07:48:08.118Z,18.00
2023-05-14T07:50:34.887Z,18.40
2023-05-14T07:53:01.502Z,19.70
2023-05-14T07:55:28.201Z,18.80
2023-05-14T07:57:54.864Z,19.67
2023-05-14T08:00:21.680Z,20.63
2023-05-14T08:02:49.253Z,20.40
2023-05-14T08:05:16.682Z,23.88
2023-05-14T08:07:43.521Z,25.08
2023-05-14T08:10:10.416Z,24.33
2023-05-14T08:12:37.201Z,22.33
2023-05-14T08:15:04.307Z,23.10
2023-05-14T08:17:31.195Z,23.92
2023-05-14T08:19:57.834Z,13.90
2023-05-14T08:22:24.605Z,20.27
2023-05-14T08:24:51.222Z,21.13
2023-05-14T08:27:17.860Z,22.88
2023-05-14T08:29:44.590Z,20.48
2023-05-14T08:32:21.928Z,16.95
2023-05-14T08:34:50.852Z,15.55
2023-05-14T08:37:17.512Z,17.20
2023-05-14T08:39:44.218Z,19.13
2023-05-14T08:42:12.712Z,16.98
2023-05-14T08:44:42.715Z,15.50
2023-05-14T08:47:09.375Z,20.65
2023-05-14T08:49:42.805Z,16.42
2023-05-14T08:52:09.660Z,19.25
2023-05-14T08:54:36.528Z,7.45
2023-05-14T08:57:07.036Z,12.82
2023-05-14T08:59:33.747Z,9.05
2023-05-14T09:02:01.916Z,12.23
2023-05-14T09:04:29.650Z,11.05
2023-05-14T09:06:56.353Z,9.00
2023-05-14T09:09:23.264Z,11.02
2023-05-14T09:11:50.733Z,12.05
2023-05-14T09:14:17.403Z,10.45
2023-05-14T09:16:45.416Z,13.43
2023-05-14T09:19:12.802Z,12.77
2023-05-14T09:21:40.285Z,14.38
2023-05-14T09:24:07.452Z,24.77
2023-05-14T09:26:34.624Z,19.33
2023-05-14T09:29:04.586Z,17.42
2023-05-14T09:31:32.236Z,17.95
2023-05-14T09:33:59.299Z,24.20
2023-05-14T09:36:27.263Z,24.30
2023-05-14T09:38:56.914Z,15.93
2023-05-14T09:41:23.611Z,13.38
2023-05-14T09:43:53.304Z,12.18
2023-05-14T09:46:19.917Z,11.68
2023-05-14T09:48:46.683Z,14.10
2023-05-14T09:51:13.610Z,45.95
2023-05-14T09:53:41.302Z,28.88
2023-05-14T09:56:07.942Z,19.52
2023-05-14T09:58:34.618Z,19.20
2023-05-14T10:01:01.839Z,16.60
2023-05-14T10:03:29.891Z,11.68
2023-05-14T10:05:58.471Z,10.70
2023-05-14T10:08:27.401Z,9.48
2023-05-14T10:10:54.828Z,11.13
2023-05-14T10:13:24.158Z,9.57
2023-05-14T10:16:01.190Z,34.08
2023-05-14T10:18:27.916Z,14.38
2023-05-14T10:21:06.367Z,8.90
2023-05-14T10:23:33.768Z,11.48
2023-05-14T10:26:00.377Z,13.05
2023-05-14T10:28:27.588Z,14.43
2023-05-14T10:30:54.441Z,8.93
2023-05-14T10:33:21.352Z,15.35
2023-05-14T10:36:07.457Z,9.05
2023-05-14T10:38:35.689Z,6.85
2023-05-14T10:41:03.136Z,10.38
2023-05-14T10:43:30.955Z,8.60
2023-05-14T10:45:58.441Z,5.43
2023-05-14T10:48:25.401Z,8.75
2023-05-14T10:50:52.071Z,10.50
2023-05-14T10:53:19.085Z,5.65
2023-05-14T10:55:46.002Z,6.53
2023-05-14T10:58:12.731Z,7.00
2023-05-14T11:00:39.459Z,5.45
2023-05-14T11:03:06.789Z,5.25
2023-05-14T11:05:33.852Z,6.25
2023-05-14T11:08:00.669Z,5.88
2023-05-14T11:10:29.650Z,6.22
2023-05-14T11:12:56.538Z,7.30
2023-05-14T11:15:24.984Z,6.20
2023-05-14T11:17:52.273Z,5.68
2023-05-14T11:20:19.222Z,7.25
2023-05-14T11:22:47.882Z,5.35
2023-05-14T11:25:14.828Z,4.65
2023-05-14T11:27:45.483Z,6.22
2023-05-14T11:30:13.160Z,6.47
2023-05-14T11:32:39.985Z,6.93
2023-05-14T11:35:07.162Z,8.13
2023-05-14T11:37:33.965Z,9.43
2023-05-14T11:40:01.028Z,6.68
2023-05-14T11:42:27.726Z,6.05
2023-05-14T11:44:54.344Z,8.05
2023-05-14T11:47:21.465Z,10.02
2023-05-14T11:49:48.659Z,5.93
2023-05-14T11:52:15.994Z,6.10
2023-05-14T11:54:43.783Z,5.32
2023-05-14T11:57:12.637Z,5.68
2023-05-14T11:59:39.850Z,6.10
2023-05-14T12:02:10.389Z,8.82
2023-05-14T12:04:37.148Z,7.60
2023-05-14T12:07:12.227Z,6.10
2023-05-14T12:09:45.242Z,8.05
2023-05-14T12:12:12.506Z,4.10
2023-05-14T12:14:41.633Z,10.05
2023-05-14T12:17:20.291Z,5.93
2023-05-14T12:19:48.450Z,6.40
2023-05-14T12:22:16.368Z,7.05
2023-05-14T12:25:03.769Z,4.03
2023-05-14T12:27:30.635Z,5.03
2023-05-14T12:30:19.123Z,7.15
2023-05-14T12:32:48.932Z,5.13
2023-05-14T12:35:15.848Z,13.27
2023-05-14T12:37:43.064Z,5.38
2023-05-14T12:40:10.357Z,5.80
2023-05-14T12:42:37.227Z,5.82
2023-05-14T12:45:07.378Z,6.97
2023-05-14T12:47:34.793Z,6.05
2023-05-14T12:50:01.476Z,7.85
2023-05-14T12:52:37.971Z,6.38
2023-05-14T12:55:06.926Z,9.45
2023-05-14T12:57:35.394Z,15.00
2023-05-14T13:00:02.540Z,9.50
2023-05-14T13:02:29.824Z,9.77
2023-05-14T13:04:56.535Z,8.45
2023-05-14T13:07:23.543Z,6.88
2023-05-14T13:09:50.180Z,4.68
2023-05-14T13:12:16.924Z,5.25
2023-05-14T13:14:43.605Z,4.95
2023-05-14T13:17:10.360Z,4.90
2023-05-14T13:19:37.587Z,4.07
2023-05-14T13:22:04.536Z,4.88
2023-05-14T13:24:31.270Z,4.80
2023-05-14T13:26:58.405Z,8.15
2023-05-14T13:29:25.084Z,6.32
2023-05-14T13:31:51.797Z,4.80
2023-05-14T13:34:18.863Z,7.93
2023-05-14T13:36:47.023Z,9.05
2023-05-14T13:39:14.559Z,6.28
2023-05-14T13:41:41.461Z,6.85
2023-05-14T13:44:08.078Z,7.63
2023-05-14T13:46:34.856Z,4.53
2023-05-14T13:49:01.650Z,5.82
2023-05-14T13:51:28.930Z,5.68
2023-05-14T13:53:55.898Z,5.00
2023-05-14T13:56:22.864Z,6.72
2023-05-14T13:58:49.690Z,6.50
2023-05-14T14:01:16.826Z,10.18
2023-05-14T14:03:43.636Z,5.05
2023-05-14T14:06:10.890Z,6.55
2023-05-14T14:08:37.601Z,19.85
2023-05-14T14:11:04.714Z,5.45
2023-05-14T14:13:31.406Z,5.70
2023-05-14T14:16:06.292Z,8.43
2023-05-14T14:18:33.295Z,20.92
2023-05-14T14:20:59.910Z,8.50
2023-05-14T14:23:26.707Z,9.23
2023-05-14T14:25:53.677Z,6.15
2023-05-14T14:28:20.460Z,3.45
2023-05-14T14:30:50.284Z,7.40
2023-05-14T14:33:17.189Z,7.15
2023-05-14T14:35:44.072Z,7.82
2023-05-14T14:38:11.025Z,8.55
2023-05-14T14:40:37.765Z,7.05
2023-05-14T14:43:04.591Z,7.97
2023-05-14T14:45:31.695Z,8.50
2023-05-14T14:48:37.477Z,14.05
2023-05-14T14:51:04.651Z,24.73
2023-05-14T14:53:31.486Z,9.77
2023-05-14T14:55:58.372Z,9.35
2023-05-14T14:58:26.076Z,13.57
2023-05-14T15:00:56.502Z,14.05
2023-05-14T15:03:23.989Z,9.40
2023-05-14T15:05:53.919Z,7.55
2023-05-14T15:08:24.562Z,10.80
2023-05-14T15:10:51.600Z,10.07
2023-05-14T15:13:19.291Z,8.32
2023-05-14T15:15:48.407Z,5.97
2023-05-14T15:18:15.092Z,7.30
2023-05-14T15:20:42.032Z,10.15
2023-05-14T15:23:09.065Z,9.95
2023-05-14T15:25:36.444Z,9.75
2023-05-14T15:28:03.157Z,13.18
2023-05-14T15:30:30.372Z,7.80
2023-05-14T15:32:57.175Z,17.10
2023-05-14T15:35:24.129Z,7.05
2023-05-14T15:37:51.097Z,6.95
2023-05-14T15:40:19.074Z,6.10
2023-05-14T15:42:47.075Z,7.68
2023-05-14T15:45:13.936Z,7.00
2023-05-14T15:47:41.390Z,6.47
2023-05-14T15:50:08.655Z,6.93
2023-05-14T15:52:36.505Z,8.38
2023-05-14T15:55:04.544Z,5.30
2023-05-14T15:57:31.792Z,6.22
2023-05-14T15:59:58.406Z,5.68
2023-05-14T16:02:25.120Z,5.80
2023-05-14T16:04:51.790Z,6.40
2023-05-14T16:07:18.550Z,6.15
2023-05-14T16:09:45.225Z,6.53
2023-05-14T16:12:12.521Z,6.28
2023-05-14T16:14:41.764Z,6.28
2023-05-14T16:17:08.785Z,11.32
2023-05-14T16:19:35.413Z,8.73
2023-05-14T16:22:02.263Z,9.15
2023-05-14T16:24:28.926Z,12.82
2023-05-14T16:26:56.131Z,10.57
2023-05-14T16:29:22.921Z,11.15
2023-05-14T16:31:49.841Z,10.57
2023-05-14T16:34:16.769Z,10.50
2023-05-14T16:36:43.399Z,13.40
2023-05-14T16:39:11.517Z,12.07
2023-05-14T16:41:38.110Z,10.30
2023-05-14T16:44:04.961Z,8.02
2023-05-14T16:46:32.389Z,8.50
2023-05-14T16:48:59.248Z,8.82
2023-05-14T16:51:25.863Z,9.70
2023-05-14T16:53:54.701Z,8.82
2023-05-14T16:56:22.525Z,11.73
2023-05-14T16:58:49.363Z,8.45
2023-05-14T17:01:16.110Z,13.48
2023-05-14T17:03:43.611Z,9.90
2023-05-14T17:06:13.352Z,10.93
2023-05-14T17:08:39.991Z,15.50
2023-05-14T17:11:06.714Z,14.63
2023-05-14T17:13:33.530Z,16.55
2023-05-14T17:16:00.687Z,15.35
2023-05-14T17:18:27.522Z,11.52
2023-05-14T17:20:54.228Z,15.50
2023-05-14T17:23:20.969Z,16.17
2023-05-14T17:25:47.881Z,15.35
2023-05-14T17:28:14.522Z,21.88
2023-05-14T17:30:41.772Z,26.55
2023-05-14T17:33:08.702Z,15.70
2023-05-14T17:35:36.436Z,19.63
2023-05-14T17:38:06.032Z,15.95
2023-05-14T17:40:33.620Z,13.48
2023-05-14T17:43:00.520Z,19.20
2023-05-14T17:45:28.549Z,20.05
2023-05-14T17:47:57.364Z,14.70
2023-05-14T17:50:24.125Z,15.50
2023-05-14T17:52:54.419Z,17.55
2023-05-14T17:55:22.509Z,36.97
2023-05-14T17:57:49.649Z,27.13
2023-05-14T18:00:16.557Z,21.77
2023-05-14T18:02:43.409Z,23.75
2023-05-14T18:05:10.577Z,17.83
2023-05-14T18:07:37.331Z,21.70
2023-05-14T18:10:04.309Z,26.25
2023-05-14T18:12:31.326Z,21.25
2023-05-14T18:14:58.154Z,21.88
2023-05-14T18:17:24.960Z,26.45
2023-05-14T18:19:51.867Z,27.75
2023-05-14T18:22:20.340Z,26.55
2023-05-14T18:24:47.171Z,28.08
2023-05-14T18:27:13.949Z,24.73
2023-05-14T18:29:40.606Z,32.65
2023-05-14T18:32:07.575Z,34.50
2023-05-14T18:34:34.260Z,31.40
2023-05-14T18:37:01.129Z,28.38
2023-05-14T18:39:27.821Z,36.50
2023-05-14T18:41:55.098Z,30.88
2023-05-14T18:44:22.650Z,31.58
2023-05-14T18:46:49.376Z,27.50
2023-05-14T18:49:16.121Z,27.67
2023-05-14T18:51:42.758Z,29.08
2023-05-14T18:54:09.426Z,32.13
2023-05-14T18:56:36.812Z,32.83
2023-05-14T18:59:04.380Z,33.00
2023-05-14T19:01:31.506Z,29.52
2023-05-14T19:03:58.380Z,37.03
2023-05-14T19:06:25.230Z,36.10
2023-05-14T19:08:52.099Z,39.70
2023-05-14T19:11:18.882Z,38.85
2023-05-14T19:13:46.800Z,38.17
2023-05-14T19:16:13.494Z,27.42
2023-05-14T19:18:40.212Z,34.28
2023-05-14T19:21:06.831Z,51.05
2023-05-14T19:23:33.496Z,37.40
2023-05-14T19:26:00.179Z,23.92
2023-05-14T19:28:26.824Z,20.42
2023-05-14T19:30:53.457Z,27.25
2023-05-14T19:33:20.113Z,23.30
2023-05-14T19:35:47.432Z,24.48
2023-05-14T19:38:15.068Z,24.80
2023-05-14T19:40:43.047Z,25.52
2023-05-14T19:43:11.922Z,31.52
2023-05-14T19:45:39.094Z,25.55
2023-05-14T19:48:06.606Z,25.88
2023-05-14T19:50:33.601Z,19.67
2023-05-14T19:53:00.776Z,43.22
2023-05-14T19:55:27.477Z,22.33
2023-05-14T19:57:54.257Z,16.15
2023-05-14T20:00:22.411Z,19.25
2023-05-14T20:02:49.102Z,18.83
2023-05-14T20:05:16.633Z,16.90
2023-05-14T20:07:43.864Z,21.38
2023-05-14T20:10:10.919Z,24.15
2023-05-14T20:12:37.577Z,19.75
2023-05-14T20:15:04.659Z,18.75
2023-05-14T20:17:31.292Z,21.15
2023-05-14T20:19:58.256Z,22.85
2023-05-14T20:22:24.901Z,20.58
2023-05-14T20:24:52.726Z,23.98
2023-05-14T20:27:19.506Z,14.07
2023-05-14T20:29:47.044Z,14.43
2023-05-14T20:32:14.892Z,14.00
2023-05-14T20:34:41.539Z,14.93
2023-05-14T20:37:08.698Z,13.23
2023-05-14T20:39:35.388Z,12.57
2023-05-14T20:42:02.112Z,15.88
2023-05-14T20:44:28.750Z,14.93
2023-05-14T20:46:55.401Z,11.73
2023-05-14T20:49:22.088Z,13.82
2023-05-14T20:51:48.738Z,16.20
2023-05-14T20:54:15.543Z,11.38
2023-05-14T20:56:42.166Z,13.52
2023-05-14T20:59:09.223Z,11.63
2023-05-14T21:01:35.965Z,14.90
2023-05-14T21:04:03.371Z,12.18
2023-05-14T21:06:30.319Z,14.02
2023-05-14T21:08:56.967Z,13.60
2023-05-14T21:11:24.044Z,19.25
2023-05-14T21:13:50.737Z,18.17
2023-05-14T21:16:17.394Z,89.13
2023-05-14T21:18:44.161Z,42.10
2023-05-14T21:21:10.859Z,35.78
2023-05-14T21:23:37.584Z,26.60
2023-05-14T21:26:04.498Z,19.27
2023-05-14T21:28:31.430Z,15.23
2023-05-14T21:30:58.142Z,19.42
2023-05-14T21:33:24.801Z,15.48
2023-05-14T21:35:51.477Z,18.17
2023-05-14T21:38:18.397Z,17.38
2023-05-14T21:40:45.167Z,11.73
2023-05-14T21:43:11.823Z,11.65
2023-05-14T21:45:38.781Z,18.60
2023-05-14T21:48:05.773Z,21.80
2023-05-14T21:50:32.533Z,16.13
2023-05-14T21:52:59.162Z,15.65
2023-05-14T21:55:27.674Z,19.27
2023-05-14T21:57:54.654Z,14.07
2023-05-14T22:00:24.136Z,17.02
2023-05-14T22:02:52.353Z,16.50
2023-05-14T22:05:19.591Z,17.95
2023-05-14T22:07:46.246Z,17.35
2023-05-14T22:10:13.358Z,16.45
2023-05-14T22:12:40.310Z,11.60
2023-05-14T22:15:08.703Z,10.90
2023-05-14T22:17:35.415Z,13.45
2023-05-14T22:20:02.822Z,14.60
2023-05-14T22:22:29.455Z,17.60
2023-05-14T22:24:56.143Z,13.93
2023-05-14T22:27:23.078Z,13.35
2023-05-14T22:29:49.673Z,14.60
2023-05-14T22:32:16.335Z,15.57
2023-05-14T22:34:43.036Z,17.67
2023-05-14T22:37:09.648Z,16.50
2023-05-14T22:39:36.463Z,14.65
2023-05-14T22:42:03.112Z,15.23
2023-05-14T22:44:30.135Z,11.77
2023-05-14T22:46:57.111Z,11.20
2023-05-14T22:49:24.021Z,13.43
2023-05-14T22:51:54.186Z,11.68
2023-05-14T22:54:21.229Z,14.40
2023-05-14T22:56:47.834Z,17.73
2023-05-14T22:59:14.450Z,12.27
2023-05-14T23:01:41.235Z,10.52
2023-05-14T23:04:08.068Z,12.77
2023-05-14T23:06:34.760Z,11.93
2023-05-14T23:09:01.420Z,9.63
2023-05-14T23:11:28.189Z,12.32
2023-05-14T23:13:54.913Z,9.05
2023-05-14T23:16:21.606Z,11.57
2023-05-14T23:18:48.455Z,13.45
2023-05-14T23:21:15.276Z,11.20
2023-05-14T23:23:41.925Z,8.00
2023-05-14T23:26:08.581Z,7.60
2023-05-14T23:28:35.271Z,8.45
2023-05-14T23:31:01.911Z,8.90
2023-05-14T23:33:28.728Z,9.30
2023-05-14T23:35:55.403Z,16.55
2023-05-14T23:38:22.101Z,11.30
2023-05-14T23:40:48.993Z,13.30
2023-05-14T23:43:15.685Z,9.70
2023-05-14T23:45:42.387Z,7.57
2023-05-14T23:48:09.119Z,9.90
2023-05-14T23:50:35.758Z,12.57
2023-05-14T23:53:02.394Z,9.38
2023-05-14T23:55:29.041Z,9.15
2023-05-14T23:57:55.797Z,8.63
